createdAt,value
2022-10-26T00:03:17.731Z,7.00
2022-10-26T00:13:20.343Z,5.70
2022-10-26T00:23:24.309Z,5.97
2022-10-26T00:33:27.652Z,6.28
2022-10-26T00:43:40.141Z,5.43
2022-10-26T00:53:43.100Z,5.60
2022-10-26T01:03:48.570Z,6.18
2022-10-26T01:13:53.663Z,5.90
2022-10-26T01:24:22.866Z,6.03
2022-10-26T01:34:35.981Z,5.85
2022-10-26T01:44:42.709Z,6.43
2022-10-26T01:54:47.023Z,5.82
2022-10-26T02:05:08.160Z,6.75
2022-10-26T02:15:22.080Z,6.55
2022-10-26T02:25:27.298Z,7.43
2022-10-26T02:35:35.202Z,7.18
2022-10-26T02:45:43.743Z,8.00
2022-10-26T02:55:51.630Z,7.03
2022-10-26T03:05:54.340Z,7.13
2022-10-26T03:15:58.387Z,7.82
2022-10-26T03:26:01.244Z,8.52
2022-10-26T03:36:05.912Z,9.05
2022-10-26T03:46:08.707Z,8.88
2022-10-26T03:56:12.630Z,9.57
2022-10-26T04:06:15.607Z,9.85
2022-10-26T04:16:19.572Z,9.13
2022-10-26T04:26:22.246Z,9.40
2022-10-26T04:36:26.215Z,9.90
2022-10-26T04:46:29.456Z,9.38
2022-10-26T04:56:34.141Z,8.70
2022-10-26T05:06:36.877Z,8.82
2022-10-26T05:16:40.843Z,9.55
2022-10-26T05:26:44.384Z,9.23
2022-10-26T05:36:48.541Z,9.05
2022-10-26T05:46:51.125Z,9.60
2022-10-26T05:56:55.873Z,9.32
2022-10-26T06:06:59.949Z,9.27
2022-10-26T06:17:13.091Z,8.40
2022-10-26T06:27:27.424Z,8.85
2022-10-26T06:37:32.215Z,12.07
2022-10-26T06:47:39.886Z,9.35
2022-10-26T06:57:45.039Z,8.98
2022-10-26T07:07:49.064Z,8.10
2022-10-26T07:17:53.360Z,8.18
2022-10-26T07:27:59.022Z,8.05
2022-10-26T07:38:04.257Z,8.40
2022-10-26T07:48:07.442Z,8.63
2022-10-26T07:58:11.403Z,7.93
2022-10-26T08:08:14.146Z,7.53
2022-10-26T08:18:18.087Z,6.85
2022-10-26T08:28:20.678Z,6.57
2022-10-26T08:38:24.777Z,6.70
2022-10-26T08:48:31.347Z,6.65
2022-10-26T08:58:41.208Z,6.57
2022-10-26T09:08:54.901Z,6.47
2022-10-26T09:19:12.799Z,6.07
2022-10-26T09:29:15.645Z,5.35
2022-10-26T09:39:25.498Z,5.30
2022-10-26T09:49:38.579Z,4.55
2022-10-26T09:59:42.967Z,4.53
2022-10-26T10:09:45.595Z,4.90
2022-10-26T10:19:50.212Z,4.50
2022-10-26T10:29:58.368Z,4.63
2022-10-26T10:40:09.099Z,4.63
2022-10-26T10:50:20.268Z,3.78
2022-10-26T11:00:25.655Z,3.28
2022-10-26T11:10:33.918Z,3.10
2022-10-26T11:20:42.198Z,2.28
2022-10-26T11:30:50.294Z,2.10
2022-10-26T11:41:01.838Z,1.70
2022-10-26T11:51:07.096Z,1.70
2022-10-26T12:01:15.153Z,1.60
2022-10-26T12:11:38.952Z,1.17
2022-10-26T12:21:43.875Z,1.50
2022-10-26T12:31:46.461Z,1.70
2022-10-26T12:41:58.704Z,1.50
2022-10-26T13:02:33.444Z,1.27
2022-10-26T13:12:48.523Z,1.60
2022-10-26T13:22:53.698Z,1.80
2022-10-26T13:32:58.181Z,1.38
2022-10-26T13:43:06.466Z,1.45
2022-10-26T13:53:16.135Z,1.80
2022-10-26T14:03:21.527Z,1.55
2022-10-26T14:13:26.310Z,2.00
2022-10-26T14:23:35.668Z,1.90
2022-10-26T14:33:38.308Z,2.63
2022-10-26T14:43:42.407Z,2.30
2022-10-26T14:53:49.941Z,2.20
2022-10-26T15:03:58.042Z,2.72
2022-10-26T15:14:01.517Z,2.53
2022-10-26T15:24:22.385Z,2.63
2022-10-26T15:34:25.016Z,3.25
2022-10-26T15:44:28.960Z,2.90
2022-10-26T15:54:31.553Z,3.15
2022-10-26T16:04:35.497Z,3.40
2022-10-26T16:14:53.260Z,3.00
2022-10-26T16:25:02.060Z,3.67
2022-10-26T16:35:05.023Z,4.10
2022-10-26T16:45:09.720Z,3.97
2022-10-26T16:55:12.330Z,4.05
2022-10-26T17:05:16.540Z,4.18
2022-10-26T17:15:21.097Z,4.30
2022-10-26T17:25:26.097Z,4.90
2022-10-26T17:35:28.762Z,6.15
2022-10-26T17:45:32.670Z,6.72
2022-10-26T17:55:35.422Z,6.22
2022-10-26T18:05:39.619Z,6.50
2022-10-26T18:15:42.248Z,5.95
2022-10-26T18:25:46.209Z,6.13
2022-10-26T18:35:48.860Z,6.15
2022-10-26T18:45:53.878Z,7.20
2022-10-26T18:56:02.006Z,8.00
2022-10-26T19:06:14.740Z,7.18
2022-10-26T19:16:33.533Z,6.95
2022-10-26T19:26:44.174Z,7.70
2022-10-26T19:36:47.355Z,6.35
2022-10-26T19:46:51.455Z,7.07
2022-10-26T19:56:54.126Z,6.65
2022-10-26T20:07:00.443Z,6.05
2022-10-26T20:17:04.687Z,6.30
2022-10-26T20:27:08.623Z,6.00
2022-10-26T20:37:13.066Z,5.70
2022-10-26T20:47:17.706Z,5.57
2022-10-26T20:57:26.538Z,6.85
2022-10-26T21:07:30.550Z,5.53
2022-10-26T21:17:34.421Z,5.90
2022-10-26T21:27:38.543Z,5.63
2022-10-26T21:37:41.168Z,5.95
2022-10-26T21:47:45.877Z,5.53
2022-10-26T21:57:48.575Z,5.35
2022-10-26T22:07:53.646Z,5.90
2022-10-26T22:17:56.414Z,5.72
2022-10-26T22:28:00.483Z,5.53
2022-10-26T22:38:03.129Z,5.00
2022-10-26T22:58:14.639Z,5.78
2022-10-26T23:08:18.582Z,5.55
2022-10-26T23:18:21.270Z,5.85
2022-10-26T23:28:25.229Z,5.15
2022-10-26T23:38:28.129Z,4.65
2022-10-26T23:48:32.122Z,4.85
2022-10-26T23:58:34.727Z,4.85
